Starburst — WDG8075 — position and weather

sailwx.info

Track history (hours):
 
Tides and Currents Weather Stations Pressure Air Temp Water Temp Dewpoint Dewpoint Depression Visibility Wind Speed Wind Dir Waves Ship Positions

Starburst

Owner: McCann, Matthew J, Bethesda, MD. More information available from US FCC via Universal Licensing System and Coast Guard Vessel Documentation Center.

Last reported at 2017-Dec-14 16:04 UTC. Time now 2017-Dec-15 12:15 UTC.
Position N 17°04' W 061°53'.

Length 13 m.

Type: Sailing vessel. MMSI: 367573750.

Date/timePositionNaut miles runAvg speedWind from/ knotsBaromVisibWave heightAir tempDewpointWater temp
2017-Dec-14 16:04N 17°04' W 061°53'0 4.1
2017-Dec-14 16:00N 17°04' W 061°53'1 0.5
2017-Dec-14 14:59N 17°04' W 061°54'0 0.0
2017-Dec-14 14:26N 17°04' W 061°54'0 0.0
2017-Dec-14 13:59N 17°04' W 061°54'0 0.0
2017-Dec-14 13:29N 17°04' W 061°54'0 0.0
2017-Dec-14 12:59N 17°04' W 061°54'0 0.0
2017-Dec-13 21:16N 17°04' W 061°54'0 0.0
2017-Dec-13 20:58N 17°04' W 061°54'0 0.0
2017-Dec-13 20:28N 17°05' W 061°54'0 0.0
2017-Dec-13 19:58N 17°05' W 061°54'1 1.7
2017-Dec-13 19:31N 17°04' W 061°55'2 4.8
2017-Dec-13 19:01N 17°07' W 061°54'1 0.1
2017-Dec-12 18:14N 17°08' W 061°53'0 0.0
2017-Dec-12 17:59N 17°08' W 061°53'0 0.0
2017-Dec-12 17:29N 17°08' W 061°53'1 1.3
2017-Dec-12 17:00N 17°07' W 061°54'3 5.8
2017-Dec-12 16:30N 17°05' W 061°55'1 0.1
2017-Dec-11 15:59N 17°04' W 061°54'0 0.0
2017-Dec-11 15:29N 17°04' W 061°54'0 0.0
2017-Dec-11 14:56N 17°04' W 061°54'0 0.0
2017-Dec-11 14:29N 17°04' W 061°54'0 0.0
2017-Dec-10 20:58N 17°04' W 061°54'0 0.0
2017-Dec-10 20:28N 17°04' W 061°54'0 0.0
2017-Dec-08 18:23N 17°04' W 061°54'0 0.0
2017-Dec-08 17:59N 17°04' W 061°54'0 0.3
2017-Dec-08 17:29N 17°04' W 061°54'0 0.0
2017-Dec-08 16:53N 17°04' W 061°54'0 0.0
2017-Dec-08 16:29N 17°04' W 061°54'0 0.0
2017-Dec-08 15:59N 17°04' W 061°54'0 0.0
2017-Dec-08 15:29N 17°04' W 061°54'0 0.0
2017-Dec-08 14:59N 17°04' W 061°54'0 0.0
2017-Dec-08 14:29N 17°04' W 061°54'0 0.0
2017-Dec-08 13:59N 17°04' W 061°54'0 0.0
2017-Dec-08 13:29N 17°04' W 061°54'0 0.0
2017-Dec-08 12:59N 17°04' W 061°54'0 0.0
2017-Dec-08 12:29N 17°04' W 061°54'0 0.0
2017-Dec-08 11:56N 17°04' W 061°54'0 0.0
2017-Dec-08 11:29N 17°04' W 061°54'0 0.0
2017-Dec-07 22:06N 17°04' W 061°54'0 0.0
2017-Dec-07 22:00N 17°04' W 061°54'0 0.0
2017-Dec-07 21:30N 17°04' W 061°54'0 0.0
2017-Dec-07 20:57N 17°04' W 061°54'0 0.0
2017-Dec-07 20:30N 17°04' W 061°54'0 0.0
2017-Dec-07 20:00N 17°04' W 061°54'0 0.0
2017-Dec-07 19:30N 17°04' W 061°54'0 0.2
2017-Dec-07 19:00N 17°04' W 061°54'0 0.5
2017-Dec-07 18:30N 17°04' W 061°54'2 3.1
2017-Dec-07 18:00N 17°06' W 061°55'3 6.5
2017-Dec-07 17:30N 17°09' W 061°55'3 5.2
2017-Dec-07 17:00N 17°11' W 061°53'4 7.0
2017-Dec-07 16:30N 17°11' W 061°50'3 5.9
2017-Dec-07 16:00N 17°10' W 061°47'2 4.3
2017-Dec-07 15:30N 17°09' W 061°45'  
Track history (hours):
 
Tides and Currents Weather Stations Pressure Air Temp Water Temp Dewpoint Dewpoint Depression Visibility Wind Speed Wind Dir Waves Ship Positions

Starburst

Owner: McCann, Matthew J, Bethesda, MD. More information available from US FCC via Universal Licensing System and Coast Guard Vessel Documentation Center.

Last reported at 2017-Dec-14 16:04 UTC. Time now 2017-Dec-15 12:15 UTC.
Position N 17°04' W 061°53'.

Length 13 m.

Type: Sailing vessel. MMSI: 367573750.

Date/timePositionNaut miles runAvg speedWind from/ knotsBaromVisibWave heightAir tempDewpointWater temp
2017-Dec-14 16:04N 17°04' W 061°53'0 4.1
2017-Dec-14 16:00N 17°04' W 061°53'1 0.5
2017-Dec-14 14:59N 17°04' W 061°54'0 0.0
2017-Dec-14 14:26N 17°04' W 061°54'0 0.0
2017-Dec-14 13:59N 17°04' W 061°54'0 0.0
2017-Dec-14 13:29N 17°04' W 061°54'0 0.0
2017-Dec-14 12:59N 17°04' W 061°54'0 0.0
2017-Dec-13 21:16N 17°04' W 061°54'0 0.0
2017-Dec-13 20:58N 17°04' W 061°54'0 0.0
2017-Dec-13 20:28N 17°05' W 061°54'0 0.0
2017-Dec-13 19:58N 17°05' W 061°54'1 1.7
2017-Dec-13 19:31N 17°04' W 061°55'2 4.8
2017-Dec-13 19:01N 17°07' W 061°54'1 0.1
2017-Dec-12 18:14N 17°08' W 061°53'0 0.0
2017-Dec-12 17:59N 17°08' W 061°53'0 0.0
2017-Dec-12 17:29N 17°08' W 061°53'1 1.3
2017-Dec-12 17:00N 17°07' W 061°54'3 5.8
2017-Dec-12 16:30N 17°05' W 061°55'1 0.1
2017-Dec-11 15:59N 17°04' W 061°54'0 0.0
2017-Dec-11 15:29N 17°04' W 061°54'0 0.0
2017-Dec-11 14:56N 17°04' W 061°54'0 0.0
2017-Dec-11 14:29N 17°04' W 061°54'0 0.0
2017-Dec-10 20:58N 17°04' W 061°54'0 0.0
2017-Dec-10 20:28N 17°04' W 061°54'0 0.0
2017-Dec-08 18:23N 17°04' W 061°54'0 0.0
2017-Dec-08 17:59N 17°04' W 061°54'0 0.3
2017-Dec-08 17:29N 17°04' W 061°54'0 0.0
2017-Dec-08 16:53N 17°04' W 061°54'0 0.0
2017-Dec-08 16:29N 17°04' W 061°54'0 0.0
2017-Dec-08 15:59N 17°04' W 061°54'0 0.0
2017-Dec-08 15:29N 17°04' W 061°54'0 0.0
2017-Dec-08 14:59N 17°04' W 061°54'0 0.0
2017-Dec-08 14:29N 17°04' W 061°54'0 0.0
2017-Dec-08 13:59N 17°04' W 061°54'0 0.0
2017-Dec-08 13:29N 17°04' W 061°54'0 0.0
2017-Dec-08 12:59N 17°04' W 061°54'0 0.0
2017-Dec-08 12:29N 17°04' W 061°54'0 0.0
2017-Dec-08 11:56N 17°04' W 061°54'0 0.0
2017-Dec-08 11:29N 17°04' W 061°54'0 0.0
2017-Dec-07 22:06N 17°04' W 061°54'0 0.0
2017-Dec-07 22:00N 17°04' W 061°54'0 0.0
2017-Dec-07 21:30N 17°04' W 061°54'0 0.0
2017-Dec-07 20:57N 17°04' W 061°54'0 0.0
2017-Dec-07 20:30N 17°04' W 061°54'0 0.0
2017-Dec-07 20:00N 17°04' W 061°54'0 0.0
2017-Dec-07 19:30N 17°04' W 061°54'0 0.2
2017-Dec-07 19:00N 17°04' W 061°54'0 0.5
2017-Dec-07 18:30N 17°04' W 061°54'2 3.1
2017-Dec-07 18:00N 17°06' W 061°55'3 6.5
2017-Dec-07 17:30N 17°09' W 061°55'3 5.2
2017-Dec-07 17:00N 17°11' W 061°53'4 7.0
2017-Dec-07 16:30N 17°11' W 061°50'3 5.9
2017-Dec-07 16:00N 17°10' W 061°47'2 4.3
2017-Dec-07 15:30N 17°09' W 061°45'  

Dump ship's entire track history